sensor_id;sensor_type;location;lat;lon;timestamp;pressure;altitude;pressure_sealevel;temperature;humidity
66560;BME280;53413;49.878;8.142;2023-05-25T00:01:36;100645.13;;;6.49;100.00
66560;BME280;53413;49.878;8.142;2023-05-25T00:04:02;100637.25;;;6.54;100.00
66560;BME280;53413;49.878;8.142;2023-05-25T00:06:30;100641.47;;;6.62;100.00
66560;BME280;53413;49.878;8.142;2023-05-25T00:08:56;100636.25;;;6.67;100.00
66560;BME280;53413;49.878;8.142;2023-05-25T00:11:22;100631.03;;;6.66;100.00
66560;BME280;53413;49.878;8.142;2023-05-25T00:13:49;100633.63;;;6.66;100.00
66560;BME280;53413;49.878;8.142;2023-05-25T00:16:14;100636.28;;;6.64;100.00
66560;BME280;53413;49.878;8.142;2023-05-25T00:18:40;100630.19;;;6.63;100.00
66560;BME280;53413;49.878;8.142;2023-05-25T00:21:05;100631.06;;;6.64;100.00
66560;BME280;53413;49.878;8.142;2023-05-25T00:23:31;100633.66;;;6.64;100.00
66560;BME280;53413;49.878;8.142;2023-05-25T00:25:57;100631.03;;;6.67;100.00
66560;BME280;53413;49.878;8.142;2023-05-25T00:28:23;100637.91;;;6.71;100.00
66560;BME280;53413;49.878;8.142;2023-05-25T00:30:48;100636.16;;;6.73;100.00
66560;BME280;53413;49.878;8.142;2023-05-25T00:33:14;100637.84;;;6.76;100.00
66560;BME280;53413;49.878;8.142;2023-05-25T00:35:41;100624.84;;;6.74;100.00
66560;BME280;53413;49.878;8.142;2023-05-25T00:38:17;100632.69;;;6.71;100.00
66560;BME280;53413;49.878;8.142;2023-05-25T00:40:43;100629.25;;;6.69;100.00
66560;BME280;53413;49.878;8.142;2023-05-25T00:43:08;100631.84;;;6.71;100.00
66560;BME280;53413;49.878;8.142;2023-05-25T00:45:34;100623.16;;;6.70;100.00
66560;BME280;53413;49.878;8.142;2023-05-25T00:48:00;100617.09;;;6.68;100.00
66560;BME280;53413;49.878;8.142;2023-05-25T00:50:44;100624.09;;;6.66;100.00
66560;BME280;53413;49.878;8.142;2023-05-25T00:53:11;100620.66;;;6.64;100.00
66560;BME280;53413;49.878;8.142;2023-05-25T00:55:40;100631.97;;;6.61;100.00
66560;BME280;53413;49.878;8.142;2023-05-25T00:58:08;100625.91;;;6.58;100.00
66560;BME280;53413;49.878;8.142;2023-05-25T01:00:36;100631.16;;;6.53;100.00
66560;BME280;53413;49.878;8.142;2023-05-25T01:03:10;100632.94;;;6.53;100.00
66560;BME280;53413;49.878;8.142;2023-05-25T01:05:37;100624.28;;;6.51;100.00
66560;BME280;53413;49.878;8.142;2023-05-25T01:08:07;100626.06;;;6.45;100.00
66560;BME280;53413;49.878;8.142;2023-05-25T01:10:34;100632.22;;;6.38;100.00
66560;BME280;53413;49.878;8.142;2023-05-25T01:13:02;100638.34;;;6.32;100.00
66560;BME280;53413;49.878;8.142;2023-05-25T01:15:29;100634.09;;;6.24;100.00
66560;BME280;53413;49.878;8.142;2023-05-25T01:17:55;100636.78;;;6.16;100.00
66560;BME280;53413;49.878;8.142;2023-05-25T01:20:26;100635.13;;;6.09;100.00
66560;BME280;53413;49.878;8.142;2023-05-25T01:22:56;100631.72;;;6.02;100.00
66560;BME280;53413;49.878;8.142;2023-05-25T01:25:42;100640.44;;;-24.95;100.00
66560;BME280;53413;49.878;8.142;2023-05-25T01:28:24;100635.25;;;5.90;100.00
66560;BME280;53413;49.878;8.142;2023-05-25T01:30:52;100641.28;;;5.92;100.00
66560;BME280;53413;49.878;8.142;2023-05-25T01:33:20;100636.91;;;5.96;100.00
66560;BME280;53413;49.878;8.142;2023-05-25T01:35:47;100637.81;;;5.93;100.00
66560;BME280;53413;49.878;8.142;2023-05-25T01:38:12;100630.06;;;5.89;100.00
66560;BME280;53413;49.878;8.142;2023-05-25T01:40:38;100631.81;;;5.83;100.00
66560;BME280;53413;49.878;8.142;2023-05-25T01:43:04;100630.13;;;5.78;100.00
66560;BME280;53413;49.878;8.142;2023-05-25T01:45:29;100631.06;;;5.77;100.00
66560;BME280;53413;49.878;8.142;2023-05-25T01:53:22;100642.41;;;5.63;100.00
66560;BME280;53413;49.878;8.142;2023-05-25T01:56:00;100644.16;;;5.60;100.00
66560;BME280;53413;49.878;8.142;2023-05-25T01:58:32;100645.94;;;5.54;100.00
66560;BME280;53413;49.878;8.142;2023-05-25T02:00:59;100655.50;;;5.51;100.00
66560;BME280;53413;49.878;8.142;2023-05-25T02:03:25;100664.19;;;5.47;100.00
66560;BME280;53413;49.878;8.142;2023-05-25T02:05:51;100659.91;;;5.41;100.00
66560;BME280;53413;49.878;8.142;2023-05-25T02:08:16;100660.78;;;5.35;100.00
66560;BME280;53413;49.878;8.142;2023-05-25T02:10:42;100660.81;;;5.32;100.00
66560;BME280;53413;49.878;8.142;2023-05-25T02:13:07;100659.06;;;5.31;100.00
66560;BME280;53413;49.878;8.142;2023-05-25T02:15:33;100654.78;;;5.29;100.00
66560;BME280;53413;49.878;8.142;2023-05-25T02:17:58;100649.56;;;5.29;100.00
66560;BME280;53413;49.878;8.142;2023-05-25T02:20:25;100656.44;;;5.36;100.00
66560;BME280;53413;49.878;8.142;2023-05-25T02:22:52;100652.94;;;5.46;100.00
66560;BME280;53413;49.878;8.142;2023-05-25T02:25:17;100652.03;;;5.50;100.00
66560;BME280;53413;49.878;8.142;2023-05-25T02:27:44;100653.78;;;5.48;100.00
66560;BME280;53413;49.878;8.142;2023-05-25T02:30:09;100646.84;;;5.47;100.00
66560;BME280;53413;49.878;8.142;2023-05-25T02:32:35;100646.00;;;5.45;100.00
66560;BME280;53413;49.878;8.142;2023-05-25T02:35:00;100648.56;;;5.48;100.00
66560;BME280;53413;49.878;8.142;2023-05-25T02:37:26;100643.38;;;5.50;100.00
66560;BME280;53413;49.878;8.142;2023-05-25T02:39:51;100646.81;;;5.53;100.00
66560;BME280;53413;49.878;8.142;2023-05-25T02:42:16;100643.31;;;5.56;100.00
66560;BME280;53413;49.878;8.142;2023-05-25T02:44:42;100646.78;;;5.58;100.00
66560;BME280;53413;49.878;8.142;2023-05-25T02:47:16;100647.63;;;5.60;100.00
66560;BME280;53413;49.878;8.142;2023-05-25T02:49:45;100647.63;;;5.63;100.00
66560;BME280;53413;49.878;8.142;2023-05-25T02:52:11;100639.00;;;5.57;100.00
66560;BME280;53413;49.878;8.142;2023-05-25T02:54:36;100645.94;;;5.58;100.00
66560;BME280;53413;49.878;8.142;2023-05-25T02:57:02;100640.72;;;5.58;100.00
66560;BME280;53413;49.878;8.142;2023-05-25T02:59:28;100643.31;;;5.59;100.00
66560;BME280;53413;49.878;8.142;2023-05-25T03:01:54;100642.41;;;5.63;100.00
66560;BME280;53413;49.878;8.142;2023-05-25T03:04:19;100640.66;;;5.64;100.00
66560;BME280;53413;49.878;8.142;2023-05-25T03:06:45;100645.88;;;5.64;100.00
66560;BME280;53413;49.878;8.142;2023-05-25T03:09:10;100648.47;;;5.64;100.00
66560;BME280;53413;49.878;8.142;2023-05-25T03:11:36;100649.31;;;5.66;100.00
66560;BME280;53413;49.878;8.142;2023-05-25T03:14:01;100652.78;;;5.68;100.00
66560;BME280;53413;49.878;8.142;2023-05-25T03:16:26;100644.09;;;5.70;100.00
66560;BME280;53413;49.878;8.142;2023-05-25T03:18:52;100649.25;;;5.72;100.00
66560;BME280;53413;49.878;8.142;2023-05-25T03:21:17;100655.31;;;5.74;100.00
66560;BME280;53413;49.878;8.142;2023-05-25T03:23:42;100653.59;;;5.75;100.00
66560;BME280;53413;49.878;8.142;2023-05-25T03:26:08;100657.06;;;5.74;100.00
66560;BME280;53413;49.878;8.142;2023-05-25T03:28:33;100663.16;;;5.73;100.00
66560;BME280;53413;49.878;8.142;2023-05-25T03:30:58;100659.66;;;5.77;100.00
66560;BME280;53413;49.878;8.142;2023-05-25T03:33:24;100656.13;;;5.82;100.00
66560;BME280;53413;49.878;8.142;2023-05-25T03:35:49;100654.38;;;5.84;100.00
66560;BME280;53413;49.878;8.142;2023-05-25T03:38:14;100650.03;;;5.83;100.00
66560;BME280;53413;49.878;8.142;2023-05-25T03:40:40;100650.94;;;5.82;100.00
66560;BME280;53413;49.878;8.142;2023-05-25T03:43:05;100653.56;;;5.79;100.00
66560;BME280;53413;49.878;8.142;2023-05-25T03:45:30;100658.75;;;5.78;100.00
66560;BME280;53413;49.878;8.142;2023-05-25T03:47:56;100663.06;;;5.79;100.00
66560;BME280;53413;49.878;8.142;2023-05-25T03:50:21;100659.56;;;5.86;100.00
66560;BME280;53413;49.878;8.142;2023-05-25T03:52:47;100653.50;;;5.87;100.00
66560;BME280;53413;49.878;8.142;2023-05-25T03:55:12;100666.44;;;5.90;100.00
66560;BME280;53413;49.878;8.142;2023-05-25T03:57:40;100658.66;;;5.90;100.00
66560;BME280;53413;49.878;8.142;2023-05-25T04:00:05;100665.53;;;5.96;100.00
66560;BME280;53413;49.878;8.142;2023-05-25T04:02:32;100672.47;;;6.01;100.00
66560;BME280;53413;49.878;8.142;2023-05-25T04:04:58;100676.78;;;6.07;100.00
66560;BME280;53413;49.878;8.142;2023-05-25T04:07:24;100677.56;;;6.15;100.00
66560;BME280;53413;49.878;8.142;2023-05-25T04:09:51;100680.97;;;6.22;100.00
66560;BME280;53413;49.878;8.142;2023-05-25T04:12:17;100673.97;;;6.29;100.00
66560;BME280;53413;49.878;8.142;2023-05-25T04:14:42;100684.31;;;6.35;100.00
66560;BME280;53413;49.878;8.142;2023-05-25T04:17:07;100684.19;;;6.44;100.00
66560;BME280;53413;49.878;8.142;2023-05-25T04:19:33;100684.94;;;6.56;100.00
66560;BME280;53413;49.878;8.142;2023-05-25T04:21:58;100687.41;;;6.68;100.00
66560;BME280;53413;49.878;8.142;2023-05-25T04:24:23;100691.59;;;6.82;100.00
66560;BME280;53413;49.878;8.142;2023-05-25T04:26:48;100686.25;;;6.96;100.00
66560;BME280;53413;49.878;8.142;2023-05-25T04:29:14;100682.63;;;7.07;100.00
66560;BME280;53413;49.878;8.142;2023-05-25T04:31:40;100690.31;;;7.18;100.00
66560;BME280;53413;49.878;8.142;2023-05-25T04:34:07;100701.41;;;7.31;100.00
66560;BME280;53413;49.878;8.142;2023-05-25T04:36:34;100703.81;;;7.47;100.00
66560;BME280;53413;49.878;8.142;2023-05-25T04:38:59;100706.22;;;7.62;100.00
66560;BME280;53413;49.878;8.142;2023-05-25T04:41:28;100709.44;;;7.77;100.00
66560;BME280;53413;49.878;8.142;2023-05-25T04:43:57;100709.22;;;7.92;100.00
66560;BME280;53413;49.878;8.142;2023-05-25T04:46:23;100713.31;;;8.09;100.00
66560;BME280;53413;49.878;8.142;2023-05-25T04:48:49;100711.31;;;8.25;100.00
66560;BME280;53413;49.878;8.142;2023-05-25T04:51:14;100717.09;;;8.41;100.00
66560;BME280;53413;49.878;8.142;2023-05-25T04:53:40;100702.09;;;8.55;100.00
66560;BME280;53413;49.878;8.142;2023-05-25T04:56:05;100711.38;;;8.72;100.00
66560;BME280;53413;49.878;8.142;2023-05-25T04:58:30;100706.69;;;8.88;100.00
66560;BME280;53413;49.878;8.142;2023-05-25T05:00:57;100708.97;;;9.05;100.00
66560;BME280;53413;49.878;8.142;2023-05-25T05:03:23;100719.03;;;9.23;100.00
66560;BME280;53413;49.878;8.142;2023-05-25T05:05:49;100723.03;;;9.40;100.00
66560;BME280;53413;49.878;8.142;2023-05-25T05:08:15;100723.50;;;9.58;100.00
66560;BME280;53413;49.878;8.142;2023-05-25T05:10:40;100717.88;;;9.75;100.00
66560;BME280;53413;49.878;8.142;2023-05-25T05:13:05;100726.16;;;9.94;100.00
66560;BME280;53413;49.878;8.142;2023-05-25T05:15:31;100730.09;;;10.12;100.00
66560;BME280;53413;49.878;8.142;2023-05-25T05:17:56;100733.09;;;10.31;100.00
66560;BME280;53413;49.878;8.142;2023-05-25T05:20:21;100736.16;;;10.50;100.00
66560;BME280;53413;49.878;8.142;2023-05-25T05:22:47;100733.06;;;10.69;100.00
66560;BME280;53413;49.878;8.142;2023-05-25T05:25:13;100730.88;;;10.85;100.00
66560;BME280;53413;49.878;8.142;2023-05-25T05:27:39;100725.97;;;11.04;100.00
66560;BME280;53413;49.878;8.142;2023-05-25T05:30:05;100725.47;;;11.21;100.00
66560;BME280;53413;49.878;8.142;2023-05-25T05:32:30;100724.09;;;11.37;100.00
66560;BME280;53413;49.878;8.142;2023-05-25T05:34:56;100728.78;;;11.56;100.00
66560;BME280;53413;49.878;8.142;2023-05-25T05:37:21;100728.94;;;11.80;100.00
66560;BME280;53413;49.878;8.142;2023-05-25T05:39:46;100730.72;;;12.08;100.00
66560;BME280;53413;49.878;8.142;2023-05-25T05:42:12;100724.06;;;13.46;100.00
66560;BME280;53413;49.878;8.142;2023-05-25T05:44:37;100718.13;;;18.33;96.54
66560;BME280;53413;49.878;8.142;2023-05-25T05:47:02;100723.34;;;22.44;64.71
66560;BME280;53413;49.878;8.142;2023-05-25T05:49:28;100728.38;;;24.89;53.56
66560;BME280;53413;49.878;8.142;2023-05-25T05:51:54;100723.97;;;26.77;47.89
66560;BME280;53413;49.878;8.142;2023-05-25T05:54:20;100724.09;;;28.49;43.03
66560;BME280;53413;49.878;8.142;2023-05-25T05:56:46;100734.38;;;29.58;38.66
66560;BME280;53413;49.878;8.142;2023-05-25T05:59:11;100735.78;;;30.28;37.22
66560;BME280;53413;49.878;8.142;2023-05-25T06:01:37;100736.41;;;30.71;37.08
66560;BME280;53413;49.878;8.142;2023-05-25T06:04:04;100738.84;;;31.92;33.77
66560;BME280;53413;49.878;8.142;2023-05-25T06:06:30;100730.69;;;32.39;33.81
66560;BME280;53413;49.878;8.142;2023-05-25T06:08:57;100731.72;;;32.98;31.82
66560;BME280;53413;49.878;8.142;2023-05-25T06:11:22;100736.13;;;33.51;31.69
66560;BME280;53413;49.878;8.142;2023-05-25T06:13:47;100735.84;;;34.32;29.44
66560;BME280;53413;49.878;8.142;2023-05-25T06:16:14;100738.03;;;35.21;28.61
66560;BME280;53413;49.878;8.142;2023-05-25T06:18:40;100736.19;;;34.86;27.56
66560;BME280;53413;49.878;8.142;2023-05-25T06:21:05;100742.38;;;33.88;28.40
66560;BME280;53413;49.878;8.142;2023-05-25T06:23:31;100736.84;;;32.78;29.47
66560;BME280;53413;49.878;8.142;2023-05-25T06:25:56;100737.81;;;33.52;28.42
66560;BME280;53413;49.878;8.142;2023-05-25T06:28:21;100731.34;;;34.18;27.67
66560;BME280;53413;49.878;8.142;2023-05-25T06:30:47;100728.41;;;34.83;27.74
66560;BME280;53413;49.878;8.142;2023-05-25T06:33:12;100736.91;;;35.50;25.96
66560;BME280;53413;49.878;8.142;2023-05-25T06:35:37;100739.97;;;35.34;26.05
66560;BME280;53413;49.878;8.142;2023-05-25T06:38:03;100743.41;;;35.01;25.76
66560;BME280;53413;49.878;8.142;2023-05-25T06:40:28;100732.31;;;34.38;26.36
66560;BME280;53413;49.878;8.142;2023-05-25T06:42:53;100737.28;;;34.28;26.73
66560;BME280;53413;49.878;8.142;2023-05-25T06:45:19;100747.88;;;35.15;26.07
66560;BME280;53413;49.878;8.142;2023-05-25T06:47:44;100745.63;;;35.32;26.01
66560;BME280;53413;49.878;8.142;2023-05-25T06:50:10;100738.22;;;35.19;25.65
66560;BME280;53413;49.878;8.142;2023-05-25T06:52:36;100745.03;;;34.31;25.75
66560;BME280;53413;49.878;8.142;2023-05-25T06:55:02;100732.31;;;34.38;25.65
66560;BME280;53413;49.878;8.142;2023-05-25T06:57:28;100742.03;;;34.48;25.95
66560;BME280;53413;49.878;8.142;2023-05-25T06:59:53;100755.06;;;34.02;25.58
66560;BME280;53413;49.878;8.142;2023-05-25T07:02:19;100742.94;;;34.05;25.96
66560;BME280;53413;49.878;8.142;2023-05-25T07:04:45;100750.41;;;34.46;25.95
66560;BME280;53413;49.878;8.142;2023-05-25T07:07:10;100744.75;;;35.18;25.10
66560;BME280;53413;49.878;8.142;2023-05-25T07:09:37;100750.53;;;36.91;23.25
66560;BME280;53413;49.878;8.142;2023-05-25T07:12:04;100746.28;;;36.95;23.59
66560;BME280;53413;49.878;8.142;2023-05-25T07:14:33;100743.00;;;37.64;22.65
66560;BME280;53413;49.878;8.142;2023-05-25T07:16:58;100736.97;;;38.38;22.10
66560;BME280;53413;49.878;8.142;2023-05-25T07:19:23;100735.28;;;37.93;21.80
66560;BME280;53413;49.878;8.142;2023-05-25T07:21:49;100738.94;;;36.89;22.46
66560;BME280;53413;49.878;8.142;2023-05-25T07:24:14;100737.59;;;35.10;23.89
66560;BME280;53413;49.878;8.142;2023-05-25T07:26:40;100731.84;;;34.92;24.29
66560;BME280;53413;49.878;8.142;2023-05-25T07:29:05;100731.72;;;36.36;23.64
66560;BME280;53413;49.878;8.142;2023-05-25T07:31:30;100733.69;;;36.81;22.85
66560;BME280;53413;49.878;8.142;2023-05-25T07:33:56;100732.06;;;36.73;22.74
66560;BME280;53413;49.878;8.142;2023-05-25T07:36:21;100742.88;;;36.14;23.09
66560;BME280;53413;49.878;8.142;2023-05-25T07:38:48;100734.75;;;36.87;23.00
66560;BME280;53413;49.878;8.142;2023-05-25T07:41:14;100725.97;;;36.71;22.43
66560;BME280;53413;49.878;8.142;2023-05-25T07:43:39;100729.00;;;37.15;22.51
66560;BME280;53413;49.878;8.142;2023-05-25T07:46:05;100732.50;;;38.18;21.13
66560;BME280;53413;49.878;8.142;2023-05-25T07:48:31;100736.84;;;38.70;21.00
66560;BME280;53413;49.878;8.142;2023-05-25T07:50:56;100734.06;;;38.33;21.18
66560;BME280;53413;49.878;8.142;2023-05-25T07:53:21;100742.69;;;38.11;21.50
66560;BME280;53413;49.878;8.142;2023-05-25T07:55:47;100739.88;;;38.18;21.01
66560;BME280;53413;49.878;8.142;2023-05-25T07:58:12;100727.00;;;38.44;20.79
66560;BME280;53413;49.878;8.142;2023-05-25T08:00:37;100730.03;;;39.29;20.60
66560;BME280;53413;49.878;8.142;2023-05-25T08:03:03;100737.59;;;39.87;20.32
66560;BME280;53413;49.878;8.142;2023-05-25T08:05:28;100738.28;;;39.71;19.48
66560;BME280;53413;49.878;8.142;2023-05-25T08:07:54;100725.50;;;38.48;20.28
66560;BME280;53413;49.878;8.142;2023-05-25T08:10:19;100735.50;;;39.29;20.43
66560;BME280;53413;49.878;8.142;2023-05-25T08:12:45;100735.13;;;39.55;20.29
66560;BME280;53413;49.878;8.142;2023-05-25T08:15:10;100728.53;;;39.75;19.35
66560;BME280;53413;49.878;8.142;2023-05-25T08:17:37;100726.03;;;39.43;20.12
66560;BME280;53413;49.878;8.142;2023-05-25T08:20:05;100724.50;;;40.13;19.58
66560;BME280;53413;49.878;8.142;2023-05-25T08:22:32;100726.94;;;40.22;19.68
66560;BME280;53413;49.878;8.142;2023-05-25T08:24:58;100726.94;;;40.22;20.07
66560;BME280;53413;49.878;8.142;2023-05-25T08:27:23;100717.25;;;41.07;19.13
66560;BME280;53413;49.878;8.142;2023-05-25T08:29:49;100727.72;;;41.39;19.31
66560;BME280;53413;49.878;8.142;2023-05-25T08:32:15;100715.16;;;41.15;18.80
66560;BME280;53413;49.878;8.142;2023-05-25T08:34:40;100720.88;;;40.84;19.27
66560;BME280;53413;49.878;8.142;2023-05-25T08:37:05;100716.72;;;41.11;18.99
66560;BME280;53413;49.878;8.142;2023-05-25T08:39:31;100729.16;;;40.48;19.34
66560;BME280;53413;49.878;8.142;2023-05-25T08:41:56;100737.41;;;40.25;19.57
66560;BME280;53413;49.878;8.142;2023-05-25T08:44:21;100729.81;;;39.72;19.79
66560;BME280;53413;49.878;8.142;2023-05-25T08:46:47;100734.00;;;39.33;20.23
66560;BME280;53413;49.878;8.142;2023-05-25T08:49:15;100722.84;;;39.46;20.19
66560;BME280;53413;49.878;8.142;2023-05-25T08:51:51;100731.25;;;39.33;20.37
66560;BME280;53413;49.878;8.142;2023-05-25T08:54:18;100739.75;;;39.85;20.02
66560;BME280;53413;49.878;8.142;2023-05-25T08:56:47;100738.16;;;40.97;19.43
66560;BME280;53413;49.878;8.142;2023-05-25T08:59:22;100738.03;;;42.12;18.11
66560;BME280;53413;49.878;8.142;2023-05-25T09:01:54;100725.81;;;42.65;17.93
66560;BME280;53413;49.878;8.142;2023-05-25T09:04:21;100734.53;;;42.00;17.64
66560;BME280;53413;49.878;8.142;2023-05-25T09:06:47;100737.53;;;41.35;18.41
66560;BME280;53413;49.878;8.142;2023-05-25T09:09:12;100731.38;;;40.87;18.94
66560;BME280;53413;49.878;8.142;2023-05-25T09:11:38;100731.66;;;41.03;18.74
66560;BME280;53413;49.878;8.142;2023-05-25T09:14:04;100731.03;;;42.22;17.90
66560;BME280;53413;49.878;8.142;2023-05-25T09:16:30;100731.47;;;42.53;17.97
66560;BME280;53413;49.878;8.142;2023-05-25T09:18:57;100740.88;;;42.18;18.06
66560;BME280;53413;49.878;8.142;2023-05-25T09:21:22;100746.56;;;41.94;17.97
66560;BME280;53413;49.878;8.142;2023-05-25T09:23:48;100730.66;;;41.50;18.08
66560;BME280;53413;49.878;8.142;2023-05-25T09:26:13;100728.91;;;40.50;18.74
66560;BME280;53413;49.878;8.142;2023-05-25T09:28:46;100737.81;;;40.93;18.73
66560;BME280;53413;49.878;8.142;2023-05-25T09:31:15;100742.41;;;38.63;19.78
66560;BME280;53413;49.878;8.142;2023-05-25T09:33:41;100741.53;;;37.68;20.93
66560;BME280;53413;49.878;8.142;2023-05-25T09:36:08;100744.44;;;37.41;20.92
66560;BME280;53413;49.878;8.142;2023-05-25T09:38:34;100732.06;;;36.73;21.97
66560;BME280;53413;49.878;8.142;2023-05-25T09:41:00;100741.41;;;37.50;21.03
66560;BME280;53413;49.878;8.142;2023-05-25T09:43:25;100736.09;;;37.87;20.64
66560;BME280;53413;49.878;8.142;2023-05-25T09:45:53;100748.84;;;38.07;20.89
66560;BME280;53413;49.878;8.142;2023-05-25T09:48:20;100730.75;;;37.73;20.68
66560;BME280;53413;49.878;8.142;2023-05-25T09:50:45;100743.81;;;37.33;21.22
66560;BME280;53413;49.878;8.142;2023-05-25T09:53:11;100737.59;;;36.46;21.66
66560;BME280;53413;49.878;8.142;2023-05-25T09:55:37;100737.03;;;36.96;21.60
66560;BME280;53413;49.878;8.142;2023-05-25T09:58:02;100739.22;;;37.26;20.25
66560;BME280;53413;49.878;8.142;2023-05-25T10:00:27;100733.97;;;37.25;20.53
66560;BME280;53413;49.878;8.142;2023-05-25T10:02:53;100733.06;;;37.45;20.45
66560;BME280;53413;49.878;8.142;2023-05-25T10:05:18;100735.91;;;37.18;20.82
66560;BME280;53413;49.878;8.142;2023-05-25T10:07:45;100744.03;;;37.31;20.44
66560;BME280;53413;49.878;8.142;2023-05-25T10:10:14;100743.59;;;37.34;20.88
66560;BME280;53413;49.878;8.142;2023-05-25T10:12:42;100740.56;;;36.04;21.46
66560;BME280;53413;49.878;8.142;2023-05-25T10:15:08;100739.00;;;34.07;22.73
66560;BME280;53413;49.878;8.142;2023-05-25T10:17:38;100736.72;;;31.25;26.11
66560;BME280;53413;49.878;8.142;2023-05-25T10:20:07;100745.75;;;28.66;29.70
66560;BME280;53413;49.878;8.142;2023-05-25T10:22:45;100754.63;;;26.46;31.51
66560;BME280;53413;49.878;8.142;2023-05-25T10:25:25;100753.31;;;24.80;33.16
66560;BME280;53413;49.878;8.142;2023-05-25T10:28:21;100752.75;;;24.02;35.40
66560;BME280;53413;49.878;8.142;2023-05-25T10:30:52;100747.31;;;23.14;37.82
66560;BME280;53413;49.878;8.142;2023-05-25T10:33:20;100753.00;;;22.75;39.00
66560;BME280;53413;49.878;8.142;2023-05-25T10:35:45;100750.66;;;22.59;39.25
66560;BME280;53413;49.878;8.142;2023-05-25T10:38:12;100747.50;;;22.54;39.71
66560;BME280;53413;49.878;8.142;2023-05-25T10:40:38;100743.63;;;22.22;41.20
66560;BME280;53413;49.878;8.142;2023-05-25T10:43:05;100732.78;;;22.12;41.47
66560;BME280;53413;49.878;8.142;2023-05-25T10:45:30;100729.94;;;22.27;41.21
66560;BME280;53413;49.878;8.142;2023-05-25T10:47:56;100737.53;;;22.09;41.71
66560;BME280;53413;49.878;8.142;2023-05-25T10:50:25;100728.72;;;21.95;41.72
66560;BME280;53413;49.878;8.142;2023-05-25T10:52:57;100730.81;;;22.03;41.94
66560;BME280;53413;49.878;8.142;2023-05-25T10:55:25;100724.69;;;22.25;41.71
66560;BME280;53413;49.878;8.142;2023-05-25T10:58:22;100720.13;;;22.39;40.70
66560;BME280;53413;49.878;8.142;2023-05-25T11:01:02;100726.69;;;22.35;42.06
66560;BME280;53413;49.878;8.142;2023-05-25T11:06:08;100721.78;;;22.28;42.39
66560;BME280;53413;49.878;8.142;2023-05-25T11:09:01;100713.34;;;21.99;41.16
66560;BME280;53413;49.878;8.142;2023-05-25T11:17:11;100711.03;;;21.94;42.50
66560;BME280;53413;49.878;8.142;2023-05-25T11:22:13;100712.19;;;21.90;43.11
66560;BME280;53413;49.878;8.142;2023-05-25T11:24:41;100711.25;;;21.91;43.32
66560;BME280;53413;49.878;8.142;2023-05-25T11:27:07;100712.63;;;22.08;44.28
66560;BME280;53413;49.878;8.142;2023-05-25T11:29:33;100713.06;;;22.38;43.22
66560;BME280;53413;49.878;8.142;2023-05-25T11:32:01;100701.75;;;22.70;42.82
66560;BME280;53413;49.878;8.142;2023-05-25T11:34:29;100715.13;;;22.70;42.98
66560;BME280;53413;49.878;8.142;2023-05-25T11:36:57;100710.00;;;22.55;42.73
66560;BME280;53413;49.878;8.142;2023-05-25T11:39:27;100702.34;;;22.51;43.42
66560;BME280;53413;49.878;8.142;2023-05-25T11:42:01;100700.88;;;22.47;43.64
66560;BME280;53413;49.878;8.142;2023-05-25T11:44:31;100700.34;;;22.30;43.38
66560;BME280;53413;49.878;8.142;2023-05-25T11:47:06;100700.00;;;21.99;44.29
66560;BME280;53413;49.878;8.142;2023-05-25T11:49:39;100696.41;;;22.11;43.77
66560;BME280;53413;49.878;8.142;2023-05-25T11:52:06;100698.72;;;22.27;43.61
66560;BME280;53413;49.878;8.142;2023-05-25T11:54:32;100708.81;;;22.35;43.30
66560;BME280;53413;49.878;8.142;2023-05-25T11:56:58;100696.50;;;22.57;42.90
66560;BME280;53413;49.878;8.142;2023-05-25T11:59:25;100698.22;;;22.81;43.25
66560;BME280;53413;49.878;8.142;2023-05-25T12:02:01;100694.09;;;22.77;42.48
66560;BME280;53413;49.878;8.142;2023-05-25T12:04:27;100691.06;;;22.58;42.11
66560;BME280;53413;49.878;8.142;2023-05-25T12:07:03;100692.25;;;22.54;42.21
66560;BME280;53413;49.878;8.142;2023-05-25T12:09:28;100701.16;;;22.66;42.64
66560;BME280;53413;49.878;8.142;2023-05-25T12:11:54;100695.44;;;22.59;42.51
66560;BME280;53413;49.878;8.142;2023-05-25T12:14:19;100688.75;;;22.65;43.32
66560;BME280;53413;49.878;8.142;2023-05-25T12:16:45;100685.81;;;22.80;41.47
66560;BME280;53413;49.878;8.142;2023-05-25T12:19:11;100688.41;;;22.81;40.96
66560;BME280;53413;49.878;8.142;2023-05-25T12:21:39;100681.13;;;22.83;41.47
66560;BME280;53413;49.878;8.142;2023-05-25T12:24:05;100673.19;;;22.82;41.66
66560;BME280;53413;49.878;8.142;2023-05-25T12:26:31;100673.94;;;22.72;41.38
66560;BME280;53413;49.878;8.142;2023-05-25T12:31:27;100683.78;;;22.49;41.94
66560;BME280;53413;49.878;8.142;2023-05-25T12:36:52;100669.09;;;22.78;41.99
66560;BME280;53413;49.878;8.142;2023-05-25T12:44:22;100682.06;;;22.94;42.17
66560;BME280;53413;49.878;8.142;2023-05-25T12:46:49;100675.41;;;22.77;42.00
66560;BME280;53413;49.878;8.142;2023-05-25T12:49:44;100665.31;;;22.69;41.94
66560;BME280;53413;49.878;8.142;2023-05-25T12:52:10;100661.19;;;22.87;42.50
66560;BME280;53413;49.878;8.142;2023-05-25T12:54:42;100665.91;;;22.84;42.40
66560;BME280;53413;49.878;8.142;2023-05-25T12:57:17;100661.06;;;22.89;41.83
66560;BME280;53413;49.878;8.142;2023-05-25T12:59:45;100650.84;;;22.94;42.21
66560;BME280;53413;49.878;8.142;2023-05-25T13:02:12;100659.72;;;23.06;41.86
66560;BME280;53413;49.878;8.142;2023-05-25T13:04:39;100655.69;;;23.12;41.19
66560;BME280;53413;49.878;8.142;2023-05-25T13:07:07;100660.31;;;23.10;41.08
66560;BME280;53413;49.878;8.142;2023-05-25T13:09:32;100657.88;;;22.95;41.14
66560;BME280;53413;49.878;8.142;2023-05-25T13:11:58;100648.91;;;22.96;41.31
66560;BME280;53413;49.878;8.142;2023-05-25T13:14:24;100652.75;;;23.03;41.38
66560;BME280;53413;49.878;8.142;2023-05-25T13:16:51;100645.97;;;23.11;41.13